Погода Усть-Донецкийна 2 недели

Ростовская область, Россия

30 мая-12 июня
  • 30мая
    Сегодня
    +17°
    +30°
    Небольшая облачность
    ВремяПогодаТемператураВлажностьДавлениеВетер, м/сВероятность осадков
    00:00Облачно с прояснениями+18°C66 %754 мм1.2 м/с3 %
    03:00Ясно и безоблачно+16°C83 %754 мм1.1 м/с2 %
    06:00Ясно и безоблачно+17°C81 %755 мм0.7 м/с2 %
    09:00Ясно и безоблачно+24°C52 %754 мм0.4 м/с2 %
    12:00Ясно и безоблачно+27°C39 %754 мм0.2 м/с2 %
    15:00Небольшая облачность+29°C36 %754 мм0.6 м/с2 %
    18:00Облачно с прояснениями+29°C34 %753 мм0.2 м/с12 %
    21:00Облачно с прояснениями+23°C56 %754 мм0.7 м/с5 %
  • 31мая
    Пятница
    +16°
    +28°
    Облачно с прояснениями
    ВремяПогодаТемператураВлажностьДавлениеВетер, м/сВероятность осадков
    00:00Практически безоблачно+20°C61 %753 мм0.8 м/с4 %
    03:00Облачно с прояснениями+19°C65 %754 мм1.7 м/с15 %
    06:00Облачно с прояснениями+19°C83 %755 мм1.3 м/с44 %
    09:00Облачно с прояснениями+24°C60 %754 мм0.8 м/с25 %
    12:00Облачно с прояснениями+27°C44 %755 мм0.3 м/с16 %
    15:00Облачно с прояснениями+26°C41 %754 мм0.2 м/с43 %
    18:00Небольшая облачность, возможен дождь с грозой+25°C76 %755 мм0.3 м/с46 %
    21:00Облачно с прояснениями+21°C92 %755 мм0.1 м/с24 %
  • 01июня
    Суббота
    +17°
    +31°
    Небольшая облачность
    ВремяПогодаТемператураВлажностьДавлениеВетер, м/сВероятность осадков
    00:00Небольшая облачность+18°C96 %755 мм0.3 м/с10 %
    03:00Облачно с прояснениями+17°C95 %755 мм0.7 м/с6 %
    06:00Практически безоблачно+18°C93 %755 мм0.6 м/с7 %
    09:00Небольшая облачность+24°C59 %755 мм0.8 м/с5 %
    12:00Небольшая облачность+27°C38 %755 мм1.3 м/с9 %
    15:00Небольшая облачность+29°C31 %755 мм2.8 м/с14 %
    18:00Небольшая облачность+29°C31 %755 мм2.3 м/с21 %
    21:00Ясно и безоблачно+22°C45 %756 мм1.8 м/с4 %
  • 02июня
    Воскресенье
    +17°
    +31°
    Ясно и безоблачно
    ВремяПогодаТемператураВлажностьДавлениеВетер, м/сВероятность осадков
    00:00Ясно и безоблачно+19°C54 %756 мм1.3 м/с3 %
    03:00Ясно и безоблачно+18°C60 %756 мм1.1 м/с2 %
    06:00Ясно и безоблачно+19°C62 %756 мм1.3 м/с2 %
    09:00Ясно и безоблачно+26°C42 %756 мм1.6 м/с2 %
    12:00Ясно и безоблачно+30°C32 %756 мм2.8 м/с2 %
    15:00Ясно и безоблачно+30°C27 %755 мм3.1 м/с2 %
    18:00Ясно и безоблачно+29°C38 %754 мм2.5 м/с2 %
    21:00Ясно и безоблачно+23°C50 %755 мм2.3 м/с2 %
  • 03июня
    Понедельник
    +17°
    +31°
    Облачно с прояснениями
    ВремяПогодаТемператураВлажностьДавлениеВетер, м/сВероятность осадков
    00:00Ясно и безоблачно+20°C68 %755 мм2.1 м/с2 %
    03:00Ясно и безоблачно+18°C74 %754 мм1.7 м/с2 %
    06:00Ясно и безоблачно+19°C82 %754 мм1.9 м/с2 %
    09:00Ясно и безоблачно+25°C63 %754 мм2.1 м/с2 %
    12:00Ясно и безоблачно+29°C42 %754 мм2.8 м/с8 %
    15:00Облачно с прояснениями+31°C36 %753 мм3.6 м/с14 %
    18:00Практически безоблачно+30°C38 %752 мм2.9 м/с13 %
    21:00Ясно и безоблачно+24°C52 %753 мм2.0 м/с2 %
Мы используем cookies
Соглашаюсь